sensor_id;sensor_type;location;lat;lon;timestamp;pressure;altitude;pressure_sealevel;temperature;humidity
64352;BME280;50680;52.626;-8.668;2023-11-21T09:36:40;103458.50;;;8.01;100.00
64352;BME280;50680;52.626;-8.668;2023-11-21T09:39:07;103449.41;;;8.73;100.00
64352;BME280;50680;52.626;-8.668;2023-11-21T09:41:52;103436.69;;;9.30;100.00
64352;BME280;50680;52.626;-8.668;2023-11-21T09:44:31;103429.38;;;9.60;100.00
64352;BME280;50680;52.626;-8.668;2023-11-21T09:47:02;103418.75;;;9.74;100.00
64352;BME280;50680;52.626;-8.668;2023-11-21T09:49:30;103383.59;;;9.92;100.00
64352;BME280;50680;52.626;-8.668;2023-11-21T09:52:01;103376.41;;;10.05;100.00
64352;BME280;50680;52.626;-8.668;2023-11-21T09:54:31;103344.94;;;10.06;100.00
64352;BME280;50680;52.626;-8.668;2023-11-21T09:56:59;103326.41;;;10.15;100.00
64352;BME280;50680;52.626;-8.668;2023-11-21T09:59:30;103312.28;;;10.24;100.00
64352;BME280;50680;52.626;-8.668;2023-11-21T10:01:57;103301.75;;;10.29;100.00
64352;BME280;50680;52.626;-8.668;2023-11-21T10:04:25;103297.13;;;10.45;100.00
64352;BME280;50680;52.626;-8.668;2023-11-21T10:06:54;103283.13;;;10.46;100.00
64352;BME280;50680;52.626;-8.668;2023-11-21T10:09:23;103281.25;;;10.54;100.00
64352;BME280;50680;52.626;-8.668;2023-11-21T10:11:50;103280.19;;;10.64;100.00
64352;BME280;50680;52.626;-8.668;2023-11-21T10:14:19;103279.22;;;10.68;100.00
64352;BME280;50680;52.626;-8.668;2023-11-21T10:16:52;103280.06;;;10.70;100.00
64352;BME280;50680;52.626;-8.668;2023-11-21T10:19:21;103272.25;;;10.67;100.00
64352;BME280;50680;52.626;-8.668;2023-11-21T10:21:48;103294.91;;;10.73;100.00
64352;BME280;50680;52.626;-8.668;2023-11-21T10:24:14;103293.97;;;10.76;100.00
64352;BME280;50680;52.626;-8.668;2023-11-21T10:26:42;103285.28;;;10.72;100.00
64352;BME280;50680;52.626;-8.668;2023-11-21T10:29:19;103271.13;;;10.81;100.00
64352;BME280;50680;52.626;-8.668;2023-11-21T10:31:49;103281.56;;;10.84;100.00
64352;BME280;50680;52.626;-8.668;2023-11-21T10:34:18;103275.16;;;10.99;100.00
64352;BME280;50680;52.626;-8.668;2023-11-21T10:36:46;103271.56;;;11.03;100.00
64352;BME280;50680;52.626;-8.668;2023-11-21T10:39:17;103273.97;;;11.14;100.00
64352;BME280;50680;52.626;-8.668;2023-11-21T10:41:48;103283.38;;;11.25;100.00
64352;BME280;50680;52.626;-8.668;2023-11-21T10:44:16;103280.63;;;11.32;100.00
64352;BME280;50680;52.626;-8.668;2023-11-21T10:46:52;103290.16;;;11.36;100.00
64352;BME280;50680;52.626;-8.668;2023-11-21T10:49:24;103284.84;;;11.39;100.00
64352;BME280;50680;52.626;-8.668;2023-11-21T10:51:53;103280.38;;;11.42;100.00
64352;BME280;50680;52.626;-8.668;2023-11-21T10:54:20;103275.94;;;11.44;100.00
64352;BME280;50680;52.626;-8.668;2023-11-21T10:56:53;103280.09;;;11.55;100.00
64352;BME280;50680;52.626;-8.668;2023-11-21T10:59:23;103284.34;;;11.60;100.00
64352;BME280;50680;52.626;-8.668;2023-11-21T11:01:52;103285.56;;;11.45;100.00
64352;BME280;50680;52.626;-8.668;2023-11-21T11:04:19;103288.09;;;11.50;100.00
64352;BME280;50680;52.626;-8.668;2023-11-21T11:06:54;103287.97;;;11.56;100.00
64352;BME280;50680;52.626;-8.668;2023-11-21T11:09:21;103282.69;;;11.58;100.00
64352;BME280;50680;52.626;-8.668;2023-11-21T11:11:48;103280.25;;;11.47;100.00
64352;BME280;50680;52.626;-8.668;2023-11-21T11:14:15;103274.34;;;11.39;100.00
64352;BME280;50680;52.626;-8.668;2023-11-21T11:16:43;103271.56;;;11.45;100.00
64352;BME280;50680;52.626;-8.668;2023-11-21T11:19:10;103269.97;;;11.38;100.00
64352;BME280;50680;52.626;-8.668;2023-11-21T11:27:34;103267.28;;;11.41;100.00
64352;BME280;50680;52.626;-8.668;2023-11-21T11:38:38;103273.84;;;11.60;100.00
64352;BME280;50680;52.626;-8.668;2023-11-21T11:41:06;103274.59;;;11.65;100.00
64352;BME280;50680;52.626;-8.668;2023-11-21T11:43:33;103276.00;;;11.82;100.00
64352;BME280;50680;52.626;-8.668;2023-11-21T11:46:07;103272.13;;;11.98;100.00
64352;BME280;50680;52.626;-8.668;2023-11-21T11:48:40;103273.69;;;12.06;100.00
64352;BME280;50680;52.626;-8.668;2023-11-21T11:51:11;103276.69;;;12.26;100.00
64352;BME280;50680;52.626;-8.668;2023-11-21T11:53:42;103286.94;;;12.37;100.00
64352;BME280;50680;52.626;-8.668;2023-11-21T11:58:47;103271.53;;;12.56;100.00
64352;BME280;50680;52.626;-8.668;2023-11-21T12:01:18;103262.47;;;12.66;100.00
64352;BME280;50680;52.626;-8.668;2023-11-21T12:06:42;103276.16;;;12.81;100.00
64352;BME280;50680;52.626;-8.668;2023-11-21T12:09:22;103277.28;;;12.72;100.00
64352;BME280;50680;52.626;-8.668;2023-11-21T12:11:49;103274.16;;;12.89;100.00
64352;BME280;50680;52.626;-8.668;2023-11-21T12:14:17;103262.84;;;12.85;100.00
64352;BME280;50680;52.626;-8.668;2023-11-21T12:16:45;103259.22;;;12.89;100.00
64352;BME280;50680;52.626;-8.668;2023-11-21T12:19:12;103273.38;;;12.85;100.00
64352;BME280;50680;52.626;-8.668;2023-11-21T12:21:39;103273.91;;;12.98;100.00
64352;BME280;50680;52.626;-8.668;2023-11-21T12:24:10;103281.16;;;12.90;100.00
64352;BME280;50680;52.626;-8.668;2023-11-21T12:26:41;103275.63;;;12.99;100.00
64352;BME280;50680;52.626;-8.668;2023-11-21T12:29:09;103269.81;;;12.88;100.00
64352;BME280;50680;52.626;-8.668;2023-11-21T12:31:37;103262.22;;;12.77;100.00
64352;BME280;50680;52.626;-8.668;2023-11-21T12:34:04;103257.41;;;12.60;100.00
64352;BME280;50680;52.626;-8.668;2023-11-21T12:36:34;103266.75;;;12.72;100.00
64352;BME280;50680;52.626;-8.668;2023-11-21T12:39:02;103270.38;;;12.66;100.00
64352;BME280;50680;52.626;-8.668;2023-11-21T12:41:29;103265.16;;;12.65;100.00
64352;BME280;50680;52.626;-8.668;2023-11-21T12:43:57;103261.09;;;12.86;100.00
64352;BME280;50680;52.626;-8.668;2023-11-21T12:46:24;103261.91;;;12.88;100.00
64352;BME280;50680;52.626;-8.668;2023-11-21T12:48:56;103270.47;;;12.96;100.00
64352;BME280;50680;52.626;-8.668;2023-11-21T12:51:24;103264.59;;;13.16;100.00
64352;BME280;50680;52.626;-8.668;2023-11-21T12:53:51;103267.34;;;13.11;100.00
64352;BME280;50680;52.626;-8.668;2023-11-21T12:56:21;103271.28;;;13.28;100.00
64352;BME280;50680;52.626;-8.668;2023-11-21T12:58:50;103272.84;;;13.35;100.00
64352;BME280;50680;52.626;-8.668;2023-11-21T13:01:20;103281.56;;;13.37;100.00
64352;BME280;50680;52.626;-8.668;2023-11-21T13:03:54;103287.81;;;13.34;100.00
64352;BME280;50680;52.626;-8.668;2023-11-21T13:06:21;103278.97;;;13.35;100.00
64352;BME280;50680;52.626;-8.668;2023-11-21T13:08:51;103263.19;;;13.34;100.00
64352;BME280;50680;52.626;-8.668;2023-11-21T13:11:18;103248.38;;;13.30;100.00
64352;BME280;50680;52.626;-8.668;2023-11-21T13:13:45;103253.72;;;13.27;100.00
64352;BME280;50680;52.626;-8.668;2023-11-21T13:16:12;103247.97;;;13.44;100.00
64352;BME280;50680;52.626;-8.668;2023-11-21T13:18:39;103256.72;;;13.46;100.00
64352;BME280;50680;52.626;-8.668;2023-11-21T13:21:09;103255.38;;;13.32;100.00
64352;BME280;50680;52.626;-8.668;2023-11-21T13:23:43;103254.63;;;13.27;100.00
64352;BME280;50680;52.626;-8.668;2023-11-21T13:26:13;103258.09;;;13.28;100.00
64352;BME280;50680;52.626;-8.668;2023-11-21T13:28:41;103267.59;;;13.35;100.00
64352;BME280;50680;52.626;-8.668;2023-11-21T13:31:13;103270.94;;;13.40;100.00
64352;BME280;50680;52.626;-8.668;2023-11-21T13:33:53;103278.13;;;13.35;100.00
64352;BME280;50680;52.626;-8.668;2023-11-21T13:36:25;103273.03;;;13.59;100.00
64352;BME280;50680;52.626;-8.668;2023-11-21T13:38:57;103268.94;;;13.48;100.00
64352;BME280;50680;52.626;-8.668;2023-11-21T13:41:25;103275.34;;;13.40;100.00
64352;BME280;50680;52.626;-8.668;2023-11-21T13:43:58;103270.94;;;13.40;100.00
64352;BME280;50680;52.626;-8.668;2023-11-21T13:46:53;103267.78;;;13.27;100.00
64352;BME280;50680;52.626;-8.668;2023-11-21T13:49:23;103269.41;;;13.33;100.00
64352;BME280;50680;52.626;-8.668;2023-11-21T13:51:52;103270.94;;;13.40;100.00
64352;BME280;50680;52.626;-8.668;2023-11-21T13:54:21;103265.25;;;13.24;100.00
64352;BME280;50680;52.626;-8.668;2023-11-21T13:56:50;103267.19;;;13.17;100.00
64352;BME280;50680;52.626;-8.668;2023-11-21T13:59:17;103259.56;;;13.08;100.00
64352;BME280;50680;52.626;-8.668;2023-11-21T14:01:55;103268.28;;;13.10;100.00
64352;BME280;50680;52.626;-8.668;2023-11-21T14:04:23;103272.34;;;13.22;100.00
64352;BME280;50680;52.626;-8.668;2023-11-21T14:06:57;103273.03;;;13.29;100.00
64352;BME280;50680;52.626;-8.668;2023-11-21T14:09:27;103270.69;;;13.18;100.00
64352;BME280;50680;52.626;-8.668;2023-11-21T14:12:02;103265.53;;;13.15;100.00
64352;BME280;50680;52.626;-8.668;2023-11-21T14:14:33;103272.47;;;13.17;100.00
64352;BME280;50680;52.626;-8.668;2023-11-21T14:17:00;103258.38;;;13.19;100.00
64352;BME280;50680;52.626;-8.668;2023-11-21T14:19:33;103257.38;;;13.23;100.00
64352;BME280;50680;52.626;-8.668;2023-11-21T14:22:03;103256.69;;;13.16;100.00
64352;BME280;50680;52.626;-8.668;2023-11-21T14:24:30;103251.38;;;13.17;100.00
64352;BME280;50680;52.626;-8.668;2023-11-21T14:26:59;103249.97;;;13.35;100.00
64352;BME280;50680;52.626;-8.668;2023-11-21T14:29:26;103250.63;;;13.44;100.00
64352;BME280;50680;52.626;-8.668;2023-11-21T14:31:54;103254.22;;;13.41;100.00
64352;BME280;50680;52.626;-8.668;2023-11-21T14:34:24;103255.00;;;13.45;100.00
64352;BME280;50680;52.626;-8.668;2023-11-21T14:36:51;103253.31;;;13.42;100.00
64352;BME280;50680;52.626;-8.668;2023-11-21T14:39:17;103250.03;;;13.34;100.00
64352;BME280;50680;52.626;-8.668;2023-11-21T14:41:54;103246.06;;;13.19;100.00
64352;BME280;50680;52.626;-8.668;2023-11-21T14:44:26;103252.09;;;13.23;100.00
64352;BME280;50680;52.626;-8.668;2023-11-21T14:46:55;103254.00;;;13.17;100.00
64352;BME280;50680;52.626;-8.668;2023-11-21T14:49:24;103255.00;;;13.15;100.00
64352;BME280;50680;52.626;-8.668;2023-11-21T14:51:54;103257.47;;;13.20;100.00
64352;BME280;50680;52.626;-8.668;2023-11-21T14:54:31;103239.84;;;13.22;100.00
64352;BME280;50680;52.626;-8.668;2023-11-21T14:57:12;103227.72;;;13.16;100.00
64352;BME280;50680;52.626;-8.668;2023-11-21T14:59:49;103230.47;;;13.11;100.00
64352;BME280;50680;52.626;-8.668;2023-11-21T15:02:19;103231.13;;;13.20;100.00
64352;BME280;50680;52.626;-8.668;2023-11-21T15:05:10;103247.09;;;13.15;100.00
64352;BME280;50680;52.626;-8.668;2023-11-21T15:07:43;103241.13;;;13.08;100.00
64352;BME280;50680;52.626;-8.668;2023-11-21T15:10:12;103235.84;;;13.08;100.00
64352;BME280;50680;52.626;-8.668;2023-11-21T15:12:43;103236.03;;;13.02;100.00
64352;BME280;50680;52.626;-8.668;2023-11-21T15:15:11;103232.75;;;12.94;100.00
64352;BME280;50680;52.626;-8.668;2023-11-21T15:17:41;103223.22;;;12.90;100.00
64352;BME280;50680;52.626;-8.668;2023-11-21T15:20:10;103227.78;;;12.83;100.00
64352;BME280;50680;52.626;-8.668;2023-11-21T15:22:39;103223.13;;;12.93;100.00
64352;BME280;50680;52.626;-8.668;2023-11-21T15:25:07;103224.22;;;12.86;100.00
64352;BME280;50680;52.626;-8.668;2023-11-21T15:27:37;103246.69;;;12.97;100.00
64352;BME280;50680;52.626;-8.668;2023-11-21T15:30:05;103243.16;;;12.98;100.00
64352;BME280;50680;52.626;-8.668;2023-11-21T15:32:33;103242.38;;;12.95;100.00
64352;BME280;50680;52.626;-8.668;2023-11-21T15:35:00;103254.75;;;12.93;100.00
64352;BME280;50680;52.626;-8.668;2023-11-21T15:37:28;103258.38;;;12.87;100.00
64352;BME280;50680;52.626;-8.668;2023-11-21T15:39:55;103267.41;;;12.78;100.00
64352;BME280;50680;52.626;-8.668;2023-11-21T15:42:22;103269.22;;;12.76;100.00
64352;BME280;50680;52.626;-8.668;2023-11-21T15:44:50;103264.03;;;12.73;100.00
64352;BME280;50680;52.626;-8.668;2023-11-21T15:47:17;103269.50;;;12.67;100.00
64352;BME280;50680;52.626;-8.668;2023-11-21T15:49:45;103273.00;;;12.66;100.00
64352;BME280;50680;52.626;-8.668;2023-11-21T15:52:16;103264.22;;;12.67;100.00
64352;BME280;50680;52.626;-8.668;2023-11-21T15:54:43;103270.53;;;12.62;100.00
64352;BME280;50680;52.626;-8.668;2023-11-21T15:57:13;103275.22;;;12.49;100.00
64352;BME280;50680;52.626;-8.668;2023-11-21T15:59:40;103280.56;;;12.46;100.00
64352;BME280;50680;52.626;-8.668;2023-11-21T16:02:09;103264.00;;;12.42;100.00
64352;BME280;50680;52.626;-8.668;2023-11-21T16:04:39;103282.38;;;12.44;100.00
64352;BME280;50680;52.626;-8.668;2023-11-21T16:07:08;103282.63;;;12.34;100.00
64352;BME280;50680;52.626;-8.668;2023-11-21T16:09:37;103282.75;;;12.30;100.00
64352;BME280;50680;52.626;-8.668;2023-11-21T16:12:06;103271.72;;;12.15;100.00
64352;BME280;50680;52.626;-8.668;2023-11-21T16:14:34;103280.41;;;12.17;100.00
64352;BME280;50680;52.626;-8.668;2023-11-21T16:17:15;103286.63;;;12.15;100.00
64352;BME280;50680;52.626;-8.668;2023-11-21T16:19:48;103277.25;;;12.04;100.00
64352;BME280;50680;52.626;-8.668;2023-11-21T16:22:15;103284.53;;;11.90;100.00
64352;BME280;50680;52.626;-8.668;2023-11-21T16:24:42;103273.84;;;11.99;100.00
64352;BME280;50680;52.626;-8.668;2023-11-21T16:27:09;103283.47;;;12.00;100.00
64352;BME280;50680;52.626;-8.668;2023-11-21T16:29:37;103282.88;;;11.88;100.00
64352;BME280;50680;52.626;-8.668;2023-11-21T16:32:05;103290.84;;;11.83;100.00
64352;BME280;50680;52.626;-8.668;2023-11-21T16:34:33;103294.31;;;11.85;100.00
64352;BME280;50680;52.626;-8.668;2023-11-21T16:37:02;103292.53;;;11.87;100.00
64352;BME280;50680;52.626;-8.668;2023-11-21T16:39:30;103291.00;;;11.77;100.00
64352;BME280;50680;52.626;-8.668;2023-11-21T16:41:57;103283.94;;;11.79;100.00
64352;BME280;50680;52.626;-8.668;2023-11-21T16:44:24;103279.59;;;11.76;100.00
64352;BME280;50680;52.626;-8.668;2023-11-21T16:46:52;103284.09;;;11.71;100.00
64352;BME280;50680;52.626;-8.668;2023-11-21T16:49:32;103284.22;;;11.66;100.00
64352;BME280;50680;52.626;-8.668;2023-11-21T16:52:03;103284.28;;;11.63;100.00
64352;BME280;50680;52.626;-8.668;2023-11-21T16:54:30;103285.31;;;11.58;100.00
64352;BME280;50680;52.626;-8.668;2023-11-21T16:56:57;103277.50;;;11.53;100.00
64352;BME280;50680;52.626;-8.668;2023-11-21T16:59:24;103282.00;;;11.48;100.00
64352;BME280;50680;52.626;-8.668;2023-11-21T17:01:51;103278.69;;;11.38;100.00
64352;BME280;50680;52.626;-8.668;2023-11-21T17:04:18;103279.84;;;11.26;100.00
64352;BME280;50680;52.626;-8.668;2023-11-21T17:06:46;103273.63;;;11.31;100.00
64352;BME280;50680;52.626;-8.668;2023-11-21T17:09:16;103270.94;;;11.34;100.00
64352;BME280;50680;52.626;-8.668;2023-11-21T17:11:49;103267.50;;;11.32;100.00
64352;BME280;50680;52.626;-8.668;2023-11-21T17:14:18;103266.72;;;11.26;100.00
64352;BME280;50680;52.626;-8.668;2023-11-21T17:16:46;103262.34;;;11.25;100.00
64352;BME280;50680;52.626;-8.668;2023-11-21T17:19:16;103265.94;;;11.21;100.00
64352;BME280;50680;52.626;-8.668;2023-11-21T17:21:44;103283.41;;;11.22;100.00
64352;BME280;50680;52.626;-8.668;2023-11-21T17:24:12;103288.66;;;11.24;100.00
64352;BME280;50680;52.626;-8.668;2023-11-21T17:26:45;103296.53;;;11.24;100.00
64352;BME280;50680;52.626;-8.668;2023-11-21T17:29:12;103284.34;;;11.21;100.00
64352;BME280;50680;52.626;-8.668;2023-11-21T17:31:40;103279.91;;;11.23;100.00
64352;BME280;50680;52.626;-8.668;2023-11-21T17:34:07;103285.16;;;11.23;100.00
64352;BME280;50680;52.626;-8.668;2023-11-21T17:36:34;103282.47;;;11.26;100.00
64352;BME280;50680;52.626;-8.668;2023-11-21T17:39:02;103271.13;;;11.24;100.00
64352;BME280;50680;52.626;-8.668;2023-11-21T17:41:29;103276.47;;;11.21;100.00
64352;BME280;50680;52.626;-8.668;2023-11-21T17:43:56;103272.78;;;11.28;100.00
64352;BME280;50680;52.626;-8.668;2023-11-21T17:46:23;103264.97;;;11.25;100.00
64352;BME280;50680;52.626;-8.668;2023-11-21T17:48:50;103260.59;;;11.24;100.00
64352;BME280;50680;52.626;-8.668;2023-11-21T17:51:20;103269.34;;;11.26;100.00
64352;BME280;50680;52.626;-8.668;2023-11-21T17:53:47;103257.16;;;11.22;100.00
64352;BME280;50680;52.626;-8.668;2023-11-21T17:56:17;103245.78;;;11.22;100.00
64352;BME280;50680;52.626;-8.668;2023-11-21T17:58:45;103249.31;;;11.21;100.00
64352;BME280;50680;52.626;-8.668;2023-11-21T18:01:12;103252.38;;;11.01;100.00
64352;BME280;50680;52.626;-8.668;2023-11-21T18:03:40;103271.56;;;11.03;100.00
64352;BME280;50680;52.626;-8.668;2023-11-21T18:06:08;103272.44;;;11.03;100.00
64352;BME280;50680;52.626;-8.668;2023-11-21T18:08:37;103257.53;;;11.04;100.00
64352;BME280;50680;52.626;-8.668;2023-11-21T18:11:06;103254.03;;;11.05;100.00
64352;BME280;50680;52.626;-8.668;2023-11-21T18:13:33;103257.50;;;11.05;100.00
64352;BME280;50680;52.626;-8.668;2023-11-21T18:16:00;103258.38;;;11.06;100.00
64352;BME280;50680;52.626;-8.668;2023-11-21T18:18:27;103254.03;;;11.05;100.00
64352;BME280;50680;52.626;-8.668;2023-11-21T18:20:54;103267.22;;;11.00;100.00
64352;BME280;50680;52.626;-8.668;2023-11-21T18:23:21;103272.44;;;11.03;100.00
64352;BME280;50680;52.626;-8.668;2023-11-21T18:25:48;103277.66;;;11.05;100.00
64352;BME280;50680;52.626;-8.668;2023-11-21T18:28:15;103254.91;;;11.04;100.00
64352;BME280;50680;52.626;-8.668;2023-11-21T18:30:41;103251.44;;;11.02;100.00
64352;BME280;50680;52.626;-8.668;2023-11-21T18:33:09;103238.41;;;10.99;100.00
64352;BME280;50680;52.626;-8.668;2023-11-21T18:35:37;103243.69;;;10.97;100.00
64352;BME280;50680;52.626;-8.668;2023-11-21T18:38:04;103226.41;;;10.85;100.00
64352;BME280;50680;52.626;-8.668;2023-11-21T18:40:30;103241.97;;;10.95;100.00
64352;BME280;50680;52.626;-8.668;2023-11-21T18:42:57;103248.03;;;10.98;100.00
64352;BME280;50680;52.626;-8.668;2023-11-21T18:45:24;103259.28;;;11.05;100.00
64352;BME280;50680;52.626;-8.668;2023-11-21T18:47:51;103274.16;;;11.06;100.00
64352;BME280;50680;52.626;-8.668;2023-11-21T18:50:18;103293.31;;;11.09;100.00
64352;BME280;50680;52.626;-8.668;2023-11-21T18:52:48;103296.00;;;11.06;100.00
64352;BME280;50680;52.626;-8.668;2023-11-21T18:55:16;103283.72;;;11.07;100.00
64352;BME280;50680;52.626;-8.668;2023-11-21T18:57:43;103262.72;;;11.07;100.00
64352;BME280;50680;52.626;-8.668;2023-11-21T19:00:10;103241.75;;;11.05;100.00
64352;BME280;50680;52.626;-8.668;2023-11-21T19:02:39;103240.53;;;11.22;100.00
64352;BME280;50680;52.626;-8.668;2023-11-21T19:05:07;103234.56;;;11.15;100.00
64352;BME280;50680;52.626;-8.668;2023-11-21T19:07:35;103230.28;;;11.11;100.00
64352;BME280;50680;52.626;-8.668;2023-11-21T19:10:04;103243.72;;;10.96;100.00
64352;BME280;50680;52.626;-8.668;2023-11-21T19:12:37;103262.53;;;10.71;100.00
64352;BME280;50680;52.626;-8.668;2023-11-21T19:15:07;103254.84;;;10.62;100.00
64352;BME280;50680;52.626;-8.668;2023-11-21T19:17:35;103256.59;;;10.63;100.00
64352;BME280;50680;52.626;-8.668;2023-11-21T19:20:02;103250.81;;;10.44;100.00
64352;BME280;50680;52.626;-8.668;2023-11-21T19:22:30;103265.88;;;10.29;100.00
64352;BME280;50680;52.626;-8.668;2023-11-21T19:24:57;103267.84;;;10.18;100.00
64352;BME280;50680;52.626;-8.668;2023-11-21T19:27:24;103275.75;;;10.15;100.00
64352;BME280;50680;52.626;-8.668;2023-11-21T19:29:50;103284.69;;;10.02;100.00
64352;BME280;50680;52.626;-8.668;2023-11-21T19:32:17;103278.78;;;9.90;100.00
64352;BME280;50680;52.626;-8.668;2023-11-21T19:34:44;103274.53;;;9.82;100.00
64352;BME280;50680;52.626;-8.668;2023-11-21T19:37:11;103287.94;;;9.60;100.00
64352;BME280;50680;52.626;-8.668;2023-11-21T19:39:38;103289.88;;;9.46;100.00
64352;BME280;50680;52.626;-8.668;2023-11-21T19:42:05;103263.00;;;9.33;100.00
64352;BME280;50680;52.626;-8.668;2023-11-21T19:44:32;103279.50;;;9.38;100.00
64352;BME280;50680;52.626;-8.668;2023-11-21T19:47:00;103273.38;;;9.39;100.00
64352;BME280;50680;52.626;-8.668;2023-11-21T19:49:26;103269.91;;;9.38;100.00
64352;BME280;50680;52.626;-8.668;2023-11-21T19:51:54;103265.50;;;9.39;100.00
64352;BME280;50680;52.626;-8.668;2023-11-21T19:54:20;103266.38;;;9.39;100.00
64352;BME280;50680;52.626;-8.668;2023-11-21T19:56:47;103270.78;;;9.37;100.00
64352;BME280;50680;52.626;-8.668;2023-11-21T19:59:14;103274.22;;;9.41;100.00
64352;BME280;50680;52.626;-8.668;2023-11-21T20:01:44;103271.56;;;9.43;100.00
64352;BME280;50680;52.626;-8.668;2023-11-21T20:04:11;103272.50;;;9.40;100.00
64352;BME280;50680;52.626;-8.668;2023-11-21T20:06:42;103280.34;;;9.40;100.00
64352;BME280;50680;52.626;-8.668;2023-11-21T20:09:19;103290.84;;;9.40;100.00
64352;BME280;50680;52.626;-8.668;2023-11-21T20:11:46;103287.31;;;9.41;100.00
64352;BME280;50680;52.626;-8.668;2023-11-21T20:14:17;103303.88;;;9.43;100.00
64352;BME280;50680;52.626;-8.668;2023-11-21T20:16:44;103314.31;;;9.45;100.00
64352;BME280;50680;52.626;-8.668;2023-11-21T20:19:16;103311.63;;;9.52;100.00
64352;BME280;50680;52.626;-8.668;2023-11-21T20:21:43;103308.03;;;9.59;100.00
64352;BME280;50680;52.626;-8.668;2023-11-21T20:24:10;103307.03;;;9.68;100.00
64352;BME280;50680;52.626;-8.668;2023-11-21T20:26:39;103313.06;;;9.73;100.00
64352;BME280;50680;52.626;-8.668;2023-11-21T20:29:09;103310.38;;;9.79;100.00
64352;BME280;50680;52.626;-8.668;2023-11-21T20:31:36;103313.69;;;9.92;100.00
64352;BME280;50680;52.626;-8.668;2023-11-21T20:34:03;103324.81;;;10.07;100.00
64352;BME280;50680;52.626;-8.668;2023-11-21T20:36:33;103321.25;;;10.12;100.00
64352;BME280;50680;52.626;-8.668;2023-11-21T20:39:00;103337.66;;;10.24;100.00
64352;BME280;50680;52.626;-8.668;2023-11-21T20:41:27;103343.72;;;10.27;100.00
64352;BME280;50680;52.626;-8.668;2023-11-21T20:43:54;103347.16;;;10.32;100.00
64352;BME280;50680;52.626;-8.668;2023-11-21T20:46:23;103346.19;;;10.38;100.00
64352;BME280;50680;52.626;-8.668;2023-11-21T20:48:50;103350.53;;;10.41;100.00
64352;BME280;50680;52.626;-8.668;2023-11-21T20:51:21;103347.78;;;10.48;100.00
64352;BME280;50680;52.626;-8.668;2023-11-21T20:53:48;103353.91;;;10.49;100.00
64352;BME280;50680;52.626;-8.668;2023-11-21T20:56:15;103359.97;;;10.52;100.00
64352;BME280;50680;52.626;-8.668;2023-11-21T20:58:42;103353.75;;;10.58;100.00
64352;BME280;50680;52.626;-8.668;2023-11-21T21:01:09;103326.66;;;10.58;100.00
64352;BME280;50680;52.626;-8.668;2023-11-21T21:03:36;103305.63;;;10.61;100.00
64352;BME280;50680;52.626;-8.668;2023-11-21T21:06:04;103307.28;;;10.65;100.00
64352;BME280;50680;52.626;-8.668;2023-11-21T21:08:33;103312.41;;;10.71;100.00
64352;BME280;50680;52.626;-8.668;2023-11-21T21:11:00;103320.16;;;10.79;100.00
64352;BME280;50680;52.626;-8.668;2023-11-21T21:13:27;103310.47;;;10.82;100.00
64352;BME280;50680;52.626;-8.668;2023-11-21T21:15:54;103320.88;;;10.88;100.00
64352;BME280;50680;52.626;-8.668;2023-11-21T21:18:21;103326.97;;;10.89;100.00
64352;BME280;50680;52.626;-8.668;2023-11-21T21:20:53;103336.47;;;10.95;100.00
64352;BME280;50680;52.626;-8.668;2023-11-21T21:23:21;103349.47;;;11.02;100.00
64352;BME280;50680;52.626;-8.668;2023-11-21T21:25:49;103329.28;;;11.06;100.00
64352;BME280;50680;52.626;-8.668;2023-11-21T21:28:17;103311.84;;;11.02;100.00
64352;BME280;50680;52.626;-8.668;2023-11-21T21:30:44;103298.69;;;11.03;100.00
64352;BME280;50680;52.626;-8.668;2023-11-21T21:33:11;103306.44;;;11.11;100.00
64352;BME280;50680;52.626;-8.668;2023-11-21T21:35:38;103300.22;;;11.14;100.00
64352;BME280;50680;52.626;-8.668;2023-11-21T21:38:05;103310.72;;;11.15;100.00
64352;BME280;50680;52.626;-8.668;2023-11-21T21:40:32;103321.97;;;11.22;100.00
64352;BME280;50680;52.626;-8.668;2023-11-21T21:43:00;103312.28;;;11.24;100.00
64352;BME280;50680;52.626;-8.668;2023-11-21T21:45:27;103314.94;;;11.22;100.00
64352;BME280;50680;52.626;-8.668;2023-11-21T21:47:54;103314.06;;;11.22;100.00
64352;BME280;50680;52.626;-8.668;2023-11-21T21:50:22;103316.75;;;11.19;100.00
64352;BME280;50680;52.626;-8.668;2023-11-21T21:52:52;103307.13;;;11.19;100.00
64352;BME280;50680;52.626;-8.668;2023-11-21T21:55:24;103300.91;;;11.23;100.00
64352;BME280;50680;52.626;-8.668;2023-11-21T21:57:53;103300.59;;;11.39;100.00
64352;BME280;50680;52.626;-8.668;2023-11-21T22:00:21;103299.69;;;11.40;100.00
64352;BME280;50680;52.626;-8.668;2023-11-21T22:02:50;103301.50;;;11.36;100.00
64352;BME280;50680;52.626;-8.668;2023-11-21T22:05:17;103304.16;;;11.35;100.00
64352;BME280;50680;52.626;-8.668;2023-11-21T22:07:44;103299.72;;;11.38;100.00
64352;BME280;50680;52.626;-8.668;2023-11-21T22:10:11;103307.22;;;11.57;100.00
64352;BME280;50680;52.626;-8.668;2023-11-21T22:12:38;103305.59;;;11.51;100.00
64352;BME280;50680;52.626;-8.668;2023-11-21T22:15:05;103303.91;;;11.47;100.00
64352;BME280;50680;52.626;-8.668;2023-11-21T22:17:32;103287.22;;;11.50;100.00
64352;BME280;50680;52.626;-8.668;2023-11-21T22:19:59;103278.31;;;11.57;100.00
64352;BME280;50680;52.626;-8.668;2023-11-21T22:22:26;103276.47;;;11.60;100.00
64352;BME280;50680;52.626;-8.668;2023-11-21T22:24:53;103274.59;;;11.65;100.00
64352;BME280;50680;52.626;-8.668;2023-11-21T22:27:20;103280.78;;;11.64;100.00
64352;BME280;50680;52.626;-8.668;2023-11-21T22:29:49;103272.78;;;11.69;100.00
64352;BME280;50680;52.626;-8.668;2023-11-21T22:32:15;103277.16;;;11.69;100.00
64352;BME280;50680;52.626;-8.668;2023-11-21T22:34:43;103266.44;;;11.78;100.00